Decoded Metar for KMHE (MITCHELL in SD, USA) (IATA:MHE) | Meteo·Mobile Aviation Weather
aviador You're here:

KMHE Decoded Metar

MITCHELL in SD, USA
Report Time2018-09-18 20:53:00
UTC Time2018-09-18 21:23:32
Flight Rules vfr VFR
WindVRB at 05 kt
Visibility9999 m
Phenomena:N/A
Clouds:Overcast 035 Hf
Expected CloudBase > 2,800 ft AGL from Temp-Dew spread
Ceiling3,500 ft
Temp23°C (ISA +11)
Dew Point16°C (65% RH)
QNH1013 hPa
Density Alt2,776 ft
Elevation1,302 ft
Report Wrong Elevation
Raw Report
KMHE 182053Z AUTO VRB05KT 10SM OVC035 23/16 A2992 RMK AO2 SLP129
T02280156 56017=

Extra information for KMHE:More info

Metar Taf Metar & Taf Last 4 Metars F.Rules Stats Wind Profile Meteogram Temp Stats Airport Information Weather charts Add Link Nearby VenuesMetar ALERT Operation Metar Decoded Social comments

AIRNAV info for KMHE